Time;durP1;ratioP1;P1;durP2;ratioP2;P2;SDS_P1;SDS_P2;PMS_P1;PMS_P2;Temp;Humidity;BMP_temperature;BMP_pressure;BME280_temperature;BME280_humidity;BME280_pressure;Samples;Min_cycle;Max_cycle;Signal;HPM_P1;HPM_P2
2023/12/17 00:00:59;;;;;;;21.70;11.93;;;;;;;-142.57;100.00;55513.13;4975115;28;20029;-84
2023/12/17 00:03:26;;;;;;;28.55;12.68;;;;;;;-142.57;100.00;55496.97;4957342;28;20043;-83
2023/12/17 00:05:52;;;;;;;20.65;12.23;;;;;;;-142.57;100.00;55490.91;4957935;28;20502;-83
2023/12/17 00:08:19;;;;;;;27.80;12.60;;;;;;;-142.57;100.00;55529.28;4961908;28;20038;-82
2023/12/17 00:10:54;;;;;;;20.92;13.38;;;;;;;-142.57;100.00;55535.34;4979969;28;20050;-81
2023/12/17 00:13:20;;;;;;;29.27;12.55;;;;;;;-142.57;100.00;55517.16;4977794;28;20081;-83
2023/12/17 00:15:45;;;;;;;17.58;9.98;;;;;;;-142.57;100.00;55535.34;4958181;28;20457;-82
2023/12/17 00:18:12;;;;;;;14.90;9.43;;;;;;;-142.57;100.00;55595.97;4976066;28;20035;-83
2023/12/17 00:20:38;;;;;;;17.20;8.82;;;;;;;-142.57;100.00;55595.97;4975177;28;20250;-83
2023/12/17 00:23:04;;;;;;;16.63;8.85;;;;;;;-142.57;100.00;55587.88;4974508;28;20090;-83
2023/12/17 00:25:32;;;;;;;15.73;8.30;;;;;;;-142.57;100.00;55541.41;4974865;28;20031;-83
2023/12/17 00:27:57;;;;;;;14.65;7.75;;;;;;;-142.57;100.00;55535.34;4974906;28;20072;-83
2023/12/17 00:30:23;;;;;;;16.33;7.63;;;;;;;-142.57;100.00;55535.34;4974562;28;20110;-82
2023/12/17 00:32:49;;;;;;;17.13;8.05;;;;;;;-142.57;100.00;55515.16;4974603;28;20034;-82
2023/12/17 00:35:14;;;;;;;15.60;8.10;;;;;;;-142.57;100.00;55531.31;4974426;28;20486;-83
2023/12/17 00:37:43;;;;;;;15.50;8.52;;;;;;;-142.57;100.00;55557.56;4974806;28;20046;-84
2023/12/17 00:40:09;;;;;;;15.80;8.90;;;;;;;-142.57;100.00;55571.72;4974919;28;20035;-85
2023/12/17 00:42:34;;;;;;;14.35;8.70;;;;;;;-142.57;100.00;55531.31;4957694;28;20030;-83
2023/12/17 00:45:00;;;;;;;13.35;8.32;;;;;;;-142.57;100.00;55575.75;4975031;28;20537;-82
2023/12/17 00:47:25;;;;;;;14.05;8.45;;;;;;;-142.57;100.00;55555.56;4975431;28;20035;-83
2023/12/17 00:49:52;;;;;;;16.08;8.60;;;;;;;-142.57;100.00;55595.97;4975156;28;20031;-82
2023/12/17 00:52:20;;;;;;;14.93;7.65;;;;;;;-142.57;100.00;55553.53;4975839;28;20125;-83
2023/12/17 00:54:46;;;;;;;13.88;7.30;;;;;;;-142.57;100.00;55618.19;4985459;28;20053;-83
2023/12/17 00:57:12;;;;;;;13.32;7.30;;;;;;;-142.57;100.00;55563.63;4996210;28;20031;-82
2023/12/17 00:59:37;;;;;;;13.68;7.35;;;;;;;-142.57;100.00;55581.81;4958479;28;20073;-82
2023/12/17 01:02:03;;;;;;;14.68;7.75;;;;;;;-142.57;100.00;55606.06;4975555;28;20059;-83
2023/12/17 01:04:28;;;;;;;17.45;8.55;;;;;;;-142.57;100.00;55612.13;4975460;28;20046;-84
2023/12/17 01:06:54;;;;;;;20.67;9.70;;;;;;;-142.57;100.00;55583.84;4950794;28;20053;-82
2023/12/17 01:13:07;;;;;;;15.90;9.88;;;;;;;-142.57;100.00;55563.63;4998041;28;20058;-84
2023/12/17 01:15:32;;;;;;;16.63;9.80;;;;;;;-142.57;100.00;55604.03;4998403;28;20027;-84
2023/12/17 01:18:02;;;;;;;18.75;10.85;;;;;;;-142.57;100.00;55567.69;4978846;28;20027;-83
2023/12/17 01:20:27;;;;;;;23.80;11.75;;;;;;;-142.57;100.00;55567.69;4977585;28;20038;-83
2023/12/17 01:22:55;;;;;;;20.40;11.32;;;;;;;-142.57;100.00;55539.38;4975037;28;20455;-83
2023/12/17 01:25:21;;;;;;;20.90;11.18;;;;;;;-142.57;100.00;55581.81;4974995;28;20477;-83
2023/12/17 01:27:46;;;;;;;18.70;11.00;;;;;;;-142.57;100.00;55527.28;4974841;28;20080;-83
2023/12/17 01:30:12;;;;;;;15.18;10.20;;;;;;;-142.57;100.00;55579.81;4975551;28;20035;-83
2023/12/17 01:32:37;;;;;;;16.98;9.98;;;;;;;-142.57;100.00;55559.59;4975267;28;20031;-82
2023/12/17 01:35:05;;;;;;;17.63;9.98;;;;;;;-142.57;100.00;55515.16;4975159;28;20122;-82
2023/12/17 01:37:31;;;;;;;19.33;9.90;;;;;;;-142.57;100.00;55531.31;4976645;28;20068;-83
2023/12/17 01:39:56;;;;;;;18.48;10.77;;;;;;;-142.57;100.00;55547.47;4975473;28;20502;-83
2023/12/17 01:42:22;;;;;;;20.85;10.93;;;;;;;-142.57;100.00;55498.97;4975815;28;20517;-84
2023/12/17 01:44:50;;;;;;;24.23;11.23;;;;;;;-142.57;100.00;55529.28;4959322;28;20025;-84
2023/12/17 01:47:16;;;;;;;17.58;11.05;;;;;;;-142.57;100.00;55494.94;4977063;28;20097;-84
2023/12/17 01:49:42;;;;;;;22.67;11.85;;;;;;;-142.57;100.00;55525.25;4958280;28;20394;-85
2023/12/17 01:52:10;;;;;;;18.52;10.85;;;;;;;-142.57;100.00;55494.94;4976020;28;20035;-84
2023/12/17 01:54:36;;;;;;;23.10;10.95;;;;;;;-142.57;100.00;55482.81;4974591;28;20038;-84
2023/12/17 01:57:02;;;;;;;16.70;9.93;;;;;;;-142.57;100.00;55486.84;4974847;28;20035;-84
2023/12/17 01:59:28;;;;;;;15.77;9.57;;;;;;;-142.57;100.00;55498.97;4975084;28;20449;-81
2023/12/17 02:01:53;;;;;;;19.90;10.32;;;;;;;-142.57;100.00;55507.06;4957164;28;20041;-82
2023/12/17 02:04:22;;;;;;;17.92;9.65;;;;;;;-142.57;100.00;55478.78;4974288;28;20099;-83
2023/12/17 02:06:47;;;;;;;20.77;10.25;;;;;;;-142.57;100.00;55440.38;4974907;28;20086;-84
2023/12/17 02:09:13;;;;;;;14.98;8.85;;;;;;;-142.57;100.00;55454.53;4977580;28;20038;-83
2023/12/17 02:11:38;;;;;;;16.05;8.45;;;;;;;-142.57;100.00;55422.22;4979640;28;20538;-82
2023/12/17 02:14:04;;;;;;;20.85;8.50;;;;;;;-142.57;100.00;55458.56;4984022;28;20035;-85
2023/12/17 02:16:29;;;;;;;16.98;8.70;;;;;;;-142.57;100.00;55466.66;4983391;28;20031;-85
2023/12/17 02:18:57;;;;;;;18.88;9.30;;;;;;;-142.57;100.00;55470.69;4984457;28;20095;-85
2023/12/17 02:21:23;;;;;;;14.25;7.95;;;;;;;-142.57;100.00;55442.41;4966600;28;20070;-84
2023/12/17 02:23:49;;;;;;;14.77;8.60;;;;;;;-142.57;100.00;55446.44;4981429;28;20043;-84
2023/12/17 02:26:15;;;;;;;15.10;8.18;;;;;;;-142.57;100.00;55452.50;4983908;28;20039;-85
2023/12/17 02:28:45;;;;;;;17.38;9.07;;;;;;;-142.57;100.00;55432.31;4984585;28;20043;-85
2023/12/17 02:31:10;;;;;;;17.45;10.43;;;;;;;-142.57;100.00;55466.66;4966935;28;20092;-87
2023/12/17 02:33:36;;;;;;;18.75;9.82;;;;;;;-142.57;100.00;55478.78;4984434;28;20089;-87
2023/12/17 02:36:01;;;;;;;20.58;10.93;;;;;;;-142.57;100.00;55468.69;4980362;28;20034;-84
2023/12/17 02:38:27;;;;;;;19.10;11.25;;;;;;;-142.57;100.00;55436.34;4977071;28;20035;-84
2023/12/17 02:40:52;;;;;;;17.10;10.35;;;;;;;-142.57;100.00;55482.81;4980427;28;20113;-85
2023/12/17 02:43:18;;;;;;;18.85;10.15;;;;;;;-142.57;100.00;55527.28;4962333;28;20050;-85
2023/12/17 02:45:44;;;;;;;18.75;10.15;;;;;;;-142.57;100.00;55446.44;4979269;28;20038;-85
2023/12/17 02:48:09;;;;;;;18.60;10.70;;;;;;;-142.57;100.00;55432.31;4979771;28;20043;-85
2023/12/17 02:50:35;;;;;;;21.75;11.45;;;;;;;-142.57;100.00;55462.63;4981121;28;20035;-84
2023/12/17 02:53:03;;;;;;;23.85;12.10;;;;;;;-142.57;100.00;55450.50;4984430;28;20034;-83
2023/12/17 02:55:29;;;;;;;17.00;10.00;;;;;;;-142.57;100.00;55426.25;4966707;28;20030;-84
2023/12/17 02:57:54;;;;;;;18.88;10.52;;;;;;;-142.57;100.00;55426.25;4985429;28;20069;-85
2023/12/17 03:00:20;;;;;;;18.75;10.57;;;;;;;-142.57;100.00;55406.03;4968369;28;20458;-84
2023/12/17 03:02:45;;;;;;;23.70;11.68;;;;;;;-142.57;100.00;55406.03;4967669;28;20486;-84
2023/12/17 03:05:11;;;;;;;20.20;10.77;;;;;;;-142.57;100.00;55406.03;4968833;28;20026;-84
2023/12/17 03:07:39;;;;;;;26.02;11.98;;;;;;;-142.57;100.00;55414.13;4991171;28;20038;-82
2023/12/17 03:10:05;;;;;;;22.00;11.05;;;;;;;-142.57;100.00;55450.50;4997474;28;20022;-82
2023/12/17 03:12:30;;;;;;;17.70;10.75;;;;;;;-142.57;100.00;55442.41;4993658;28;20043;-85
2023/12/17 03:14:56;;;;;;;20.92;10.38;;;;;;;-142.57;100.00;55416.16;4986376;28;20065;-82
2023/12/17 03:17:21;;;;;;;19.45;11.52;;;;;;;-142.57;100.00;55408.06;4986618;28;20019;-83
2023/12/17 03:19:50;;;;;;;18.65;10.45;;;;;;;-142.57;100.00;55430.28;4971617;28;20490;-81
2023/12/17 03:22:17;;;;;;;16.98;10.25;;;;;;;-142.57;100.00;55462.63;4986777;28;20031;-83
2023/12/17 03:24:43;;;;;;;17.30;9.52;;;;;;;-142.57;100.00;55450.50;4985801;28;20633;-83
2023/12/17 03:27:08;;;;;;;19.08;10.48;;;;;;;-142.57;100.00;55412.09;4969399;28;20034;-84
2023/12/17 03:29:35;;;;;;;19.33;10.07;;;;;;;-142.57;100.00;55438.38;4986907;28;20098;-83
2023/12/17 03:32:02;;;;;;;18.88;9.75;;;;;;;-142.57;100.00;55418.16;4986153;28;20035;-84
2023/12/17 03:34:28;;;;;;;20.98;9.20;;;;;;;-142.57;100.00;55430.28;4986455;28;20050;-85
2023/12/17 03:36:56;;;;;;;16.92;9.95;;;;;;;-142.57;100.00;55434.31;4969314;28;20041;-83
2023/12/17 03:39:21;;;;;;;17.38;9.98;;;;;;;-142.57;100.00;55422.22;4968940;28;20081;-82
2023/12/17 03:41:47;;;;;;;17.67;10.45;;;;;;;-142.57;100.00;55454.53;4982213;28;20398;-83
2023/12/17 03:44:12;;;;;;;17.30;10.13;;;;;;;-142.57;100.00;55466.66;4985976;28;20042;-84
2023/12/17 03:46:40;;;;;;;15.82;9.13;;;;;;;-142.57;100.00;55450.50;4986019;28;20035;-83
2023/12/17 03:49:07;;;;;;;16.58;9.65;;;;;;;-142.57;100.00;55486.84;4986246;28;20033;-83
2023/12/17 03:51:33;;;;;;;16.52;8.82;;;;;;;-142.57;100.00;55541.41;4979335;28;20104;-87
2023/12/17 03:53:59;;;;;;;15.73;9.00;;;;;;;-142.57;100.00;55478.78;4978629;28;20027;-84
2023/12/17 03:56:24;;;;;;;14.95;9.15;;;;;;;-142.57;100.00;55494.94;4979158;28;20453;-84
2023/12/17 03:58:50;;;;;;;13.13;7.97;;;;;;;-142.57;100.00;55503.03;4980315;28;20062;-84
2023/12/17 04:01:15;;;;;;;17.05;9.27;;;;;;;-142.57;100.00;55434.31;4980995;28;20039;-84
2023/12/17 04:03:41;;;;;;;23.80;10.60;;;;;;;-142.57;100.00;55426.25;4965203;28;20031;-85
2023/12/17 04:06:07;;;;;;;18.08;10.88;;;;;;;-142.57;100.00;55438.38;4977797;28;20517;-83
2023/12/17 04:08:33;;;;;;;17.30;10.02;;;;;;;-142.57;100.00;55490.91;4961189;28;20525;-84
2023/12/17 04:10:59;;;;;;;18.65;10.35;;;;;;;-142.57;100.00;55486.84;4982912;28;20034;-82
2023/12/17 04:13:27;;;;;;;20.73;9.88;;;;;;;-142.57;100.00;55509.09;4985422;28;20039;-83
2023/12/17 04:15:53;;;;;;;18.48;10.07;;;;;;;-142.57;100.00;55507.06;4984055;28;20018;-82
2023/12/17 04:18:18;;;;;;;15.55;9.27;;;;;;;-142.57;100.00;55498.97;4986445;28;20104;-83
2023/12/17 04:20:44;;;;;;;16.48;9.32;;;;;;;-142.57;100.00;55519.19;4988496;28;20035;-82
2023/12/17 04:23:09;;;;;;;18.02;9.70;;;;;;;-142.57;100.00;55507.06;4975208;28;20082;-83
2023/12/17 04:25:35;;;;;;;19.67;9.90;;;;;;;-142.57;100.00;55509.09;4973503;29;20035;-84
2023/12/17 04:28:00;;;;;;;18.80;10.40;;;;;;;-142.57;100.00;55525.25;4980104;28;20058;-84
2023/12/17 04:30:26;;;;;;;16.63;9.95;;;;;;;-142.57;100.00;55474.72;4988522;28;20066;-84
2023/12/17 04:32:51;;;;;;;18.13;11.32;;;;;;;-142.57;100.00;55482.81;4981027;28;20489;-84
2023/12/17 04:35:17;;;;;;;19.48;11.50;;;;;;;-142.57;100.00;55454.53;4980644;28;20031;-84
2023/12/17 04:37:43;;;;;;;17.23;10.18;;;;;;;-142.57;100.00;55470.69;4965591;28;20614;-83
2023/12/17 04:40:10;;;;;;;19.90;10.68;;;;;;;-142.57;100.00;55470.69;4966479;28;20074;-83
2023/12/17 04:42:35;;;;;;;18.95;9.65;;;;;;;-142.57;100.00;55472.72;4960938;29;20374;-85
2023/12/17 04:45:06;;;;;;;15.23;9.10;;;;;;;-142.57;100.00;55466.66;4963627;28;20039;-84
2023/12/17 04:47:31;;;;;;;15.02;9.35;;;;;;;-142.57;100.00;55494.94;4964338;28;20042;-83
2023/12/17 04:49:57;;;;;;;14.40;9.07;;;;;;;-142.57;100.00;55482.81;4963629;28;20049;-84
2023/12/17 04:52:22;;;;;;;16.55;9.60;;;;;;;-142.57;100.00;55474.72;4961603;28;20072;-84
2023/12/17 04:54:48;;;;;;;17.90;9.27;;;;;;;-142.57;100.00;55454.53;4977010;28;20038;-83
2023/12/17 04:57:13;;;;;;;20.95;9.00;;;;;;;-142.57;100.00;55450.50;4959246;28;20051;-81
2023/12/17 04:59:42;;;;;;;18.33;8.88;;;;;;;-142.57;100.00;55448.47;4960814;28;20482;-82
2023/12/17 05:02:07;;;;;;;16.38;8.98;;;;;;;-142.57;100.00;55478.78;4978589;28;20023;-83
2023/12/17 05:04:33;;;;;;;17.85;9.00;;;;;;;-142.57;100.00;55470.69;4978338;28;20125;-84
2023/12/17 05:06:58;;;;;;;12.95;8.20;;;;;;;-142.57;100.00;55446.44;4979571;28;20043;-84
2023/12/17 05:09:24;;;;;;;16.33;8.30;;;;;;;-142.57;100.00;55397.97;4981684;28;20035;-83
2023/12/17 05:11:50;;;;;;;15.30;8.93;;;;;;;-142.57;100.00;55410.09;4985647;28;20393;-84
2023/12/17 05:14:16;;;;;;;15.32;8.75;;;;;;;-142.57;100.00;55399.97;4979529;28;20038;-82
2023/12/17 05:16:42;;;;;;;20.25;9.45;;;;;;;-142.57;100.00;55406.03;4978337;28;20455;-84
2023/12/17 05:19:09;;;;;;;19.70;9.68;;;;;;;-142.57;100.00;55389.88;4981791;28;20042;-81
2023/12/17 05:21:38;;;;;;;18.38;9.88;;;;;;;-142.57;100.00;55385.84;4967918;28;20038;-84
2023/12/17 05:24:03;;;;;;;16.88;10.00;;;;;;;-142.57;100.00;55389.88;4988887;28;20042;-85
2023/12/17 05:26:29;;;;;;;21.95;11.45;;;;;;;-142.57;100.00;55373.72;4990035;28;20074;-82
2023/12/17 05:28:54;;;;;;;23.63;10.30;;;;;;;-142.57;100.00;55353.50;4991709;28;20590;-83
2023/12/17 05:31:20;;;;;;;22.98;11.90;;;;;;;-142.57;100.00;55365.63;4962656;28;20043;-83
2023/12/17 05:33:46;;;;;;;21.85;13.10;;;;;;;-142.57;100.00;55357.56;4975512;28;20034;-83
2023/12/17 05:36:12;;;;;;;28.63;13.90;;;;;;;-142.57;100.00;55347.44;4978945;28;20125;-82
2023/12/17 05:38:38;;;;;;;28.42;14.70;;;;;;;-142.57;100.00;55341.38;4978577;28;20035;-84
2023/12/17 05:41:04;;;;;;;26.20;14.77;;;;;;;-142.57;100.00;55339.38;4975277;28;20402;-85
2023/12/17 05:43:30;;;;;;;27.33;14.70;;;;;;;-142.57;100.00;55329.28;4978639;28;20034;-83
2023/12/17 05:45:55;;;;;;;26.67;14.48;;;;;;;-142.57;100.00;55339.38;4961911;28;20046;-83
2023/12/17 05:48:21;;;;;;;27.73;14.45;;;;;;;-142.57;100.00;55361.59;4978688;28;20031;-82
2023/12/17 05:50:47;;;;;;;26.58;14.45;;;;;;;-142.57;100.00;55349.47;4979229;28;20022;-83
2023/12/17 05:53:13;;;;;;;23.45;14.13;;;;;;;-142.57;100.00;55365.63;4966017;28;20046;-84
2023/12/17 05:55:38;;;;;;;26.90;14.75;;;;;;;-142.57;100.00;55337.34;4961947;28;20094;-80
2023/12/17 05:58:04;;;;;;;23.10;14.00;;;;;;;-142.57;100.00;55353.50;4962513;28;20367;-81
2023/12/17 06:00:30;;;;;;;26.33;15.05;;;;;;;-142.57;100.00;55290.88;4977792;28;20406;-84
2023/12/17 06:02:56;;;;;;;26.75;14.65;;;;;;;-142.57;100.00;55317.16;4971835;28;20061;-82
2023/12/17 06:05:21;;;;;;;21.33;14.05;;;;;;;-142.57;100.00;55288.88;4962133;28;20031;-84
2023/12/17 06:07:47;;;;;;;31.08;14.88;;;;;;;-142.57;100.00;55309.06;4978286;28;20409;-84
2023/12/17 06:10:13;;;;;;;26.67;14.02;;;;;;;-142.57;100.00;55313.09;4978601;28;20117;-83
2023/12/17 06:12:38;;;;;;;25.05;14.38;;;;;;;-142.57;100.00;55296.94;4962861;28;20079;-81
2023/12/17 06:15:05;;;;;;;27.88;14.25;;;;;;;-142.57;100.00;55292.91;4978889;28;20043;-84
2023/12/17 06:17:31;;;;;;;22.45;13.25;;;;;;;-142.57;100.00;55319.16;4952693;28;20045;-85
2023/12/17 06:19:56;;;;;;;23.42;13.55;;;;;;;-142.57;100.00;55327.25;4952559;28;20039;-84
2023/12/17 06:22:28;;;;;;;25.67;13.52;;;;;;;-142.57;100.00;55321.19;4978089;28;20467;-86
2023/12/17 06:24:53;;;;;;;23.85;13.20;;;;;;;-142.57;100.00;55341.38;4978250;28;20113;-82
2023/12/17 06:27:19;;;;;;;24.63;13.02;;;;;;;-142.57;100.00;55292.91;4977601;28;20114;-87
2023/12/17 06:29:47;;;;;;;25.48;13.80;;;;;;;-142.57;100.00;55321.19;4977391;28;20038;-85
2023/12/17 06:32:12;;;;;;;24.98;12.80;;;;;;;-142.57;100.00;55345.44;4978117;28;20030;-83
2023/12/17 06:34:38;;;;;;;21.02;12.38;;;;;;;-142.57;100.00;55325.22;4977591;28;20039;-83
2023/12/17 06:37:04;;;;;;;20.80;12.77;;;;;;;-142.57;100.00;55325.22;4977368;28;20027;-85
2023/12/17 06:39:29;;;;;;;21.70;13.15;;;;;;;-142.57;100.00;55319.16;4977825;28;20118;-84
2023/12/17 06:41:55;;;;;;;26.15;12.60;;;;;;;-142.57;100.00;55311.09;4977354;28;20117;-82
2023/12/17 06:44:21;;;;;;;24.17;12.73;;;;;;;-142.57;100.00;55361.59;4977994;28;20057;-86
2023/12/17 06:46:47;;;;;;;21.80;12.93;;;;;;;-142.57;100.00;55365.63;4977839;28;20046;-86
2023/12/17 06:49:12;;;;;;;21.27;12.88;;;;;;;-142.57;100.00;55369.69;4978815;28;20035;-86
2023/12/17 06:51:42;;;;;;;22.67;13.10;;;;;;;-142.57;100.00;55333.31;4978352;28;20030;-83
2023/12/17 06:54:08;;;;;;;22.15;13.27;;;;;;;-142.57;100.00;55335.34;4984096;28;20098;-86
2023/12/17 06:56:35;;;;;;;25.60;13.50;;;;;;;-142.57;100.00;55333.31;4976193;28;20383;-90
2023/12/17 06:59:01;;;;;;;22.48;12.98;;;;;;;-142.57;100.00;55333.31;4986531;28;20125;-89
2023/12/17 07:01:27;;;;;;;24.23;13.48;;;;;;;-142.57;100.00;55377.75;4978228;28;20061;-90
2023/12/17 07:03:52;;;;;;;27.00;13.85;;;;;;;-142.57;100.00;55353.50;4978677;28;20030;-85
2023/12/17 07:06:18;;;;;;;26.52;14.10;;;;;;;-142.57;100.00;55385.84;4979155;28;20053;-81
2023/12/17 07:08:48;;;;;;;22.40;12.77;;;;;;;-142.57;100.00;55397.97;4963371;28;20375;-91
2023/12/17 07:11:14;;;;;;;23.80;12.63;;;;;;;-142.57;100.00;55426.25;4971845;28;20042;-89
2023/12/17 07:13:39;;;;;;;20.13;11.65;;;;;;;-142.57;100.00;55377.75;4982090;28;20113;-87
2023/12/17 07:16:05;;;;;;;23.02;11.73;;;;;;;-142.57;100.00;55436.34;4999679;28;20489;-91
2023/12/17 07:18:31;;;;;;;21.10;12.40;;;;;;;-142.57;100.00;55476.75;4980050;28;20031;-87
2023/12/17 07:20:59;;;;;;;20.70;11.43;;;;;;;-142.57;100.00;55509.09;4993255;28;20454;-87
2023/12/17 07:23:27;;;;;;;19.85;11.75;;;;;;;-142.57;100.00;55501.00;4959721;28;20062;-90
2023/12/17 07:25:52;;;;;;;24.20;11.35;;;;;;;-142.57;100.00;55535.34;4960053;28;20043;-92
2023/12/17 07:28:18;;;;;;;19.75;11.02;;;;;;;-142.57;100.00;55551.50;4977708;28;20386;-90
2023/12/17 07:30:43;;;;;;;19.90;10.98;;;;;;;-142.57;100.00;55589.91;4966431;28;20034;-87
2023/12/17 07:33:09;;;;;;;19.60;10.80;;;;;;;-142.57;100.00;55610.09;4998781;28;20042;-87
2023/12/17 07:35:37;;;;;;;25.05;15.00;;;;;;;-142.57;100.00;55630.31;4999404;28;20018;-88
2023/12/17 07:38:03;;;;;;;18.85;12.23;;;;;;;-142.57;100.00;55707.09;4976226;28;20038;-78
2023/12/17 07:40:28;;;;;;;19.67;10.43;;;;;;;-142.57;100.00;55721.22;4975100;28;20038;-81
2023/12/17 07:42:54;;;;;;;19.15;10.75;;;;;;;-142.57;100.00;55686.88;4976806;28;20062;-81
2023/12/17 07:45:19;;;;;;;15.38;9.40;;;;;;;-142.57;100.00;55733.34;4977223;28;20038;-82
2023/12/17 07:47:45;;;;;;;16.25;9.85;;;;;;;-142.57;100.00;55751.53;4976834;28;20065;-82
2023/12/17 07:50:10;;;;;;;16.75;9.93;;;;;;;-142.57;100.00;55753.56;4977232;28;20051;-82
2023/12/17 07:52:36;;;;;;;18.55;10.27;;;;;;;-142.57;100.00;55713.16;4978419;28;20062;-81
2023/12/17 07:55:02;;;;;;;17.52;10.35;;;;;;;-142.57;100.00;55652.53;4976329;28;20041;-81
2023/12/17 07:57:28;;;;;;;16.77;10.43;;;;;;;-142.57;100.00;55595.97;4974471;28;20073;-80
2023/12/17 07:59:53;;;;;;;18.55;11.63;;;;;;;-142.57;100.00;55563.63;4974811;28;20104;-80
2023/12/17 08:02:19;;;;;;;23.27;11.55;;;;;;;-142.57;100.00;55543.44;4974462;28;20038;-81
2023/12/17 08:04:46;;;;;;;20.38;11.27;;;;;;;-142.57;100.00;55555.56;4956805;28;20078;-82
2023/12/17 08:07:11;;;;;;;20.45;12.35;;;;;;;-142.57;100.00;55505.03;4974514;28;20039;-81
2023/12/17 08:09:37;;;;;;;22.20;12.43;;;;;;;-142.57;100.00;55505.03;4974388;28;20041;-81
2023/12/17 08:12:02;;;;;;;22.65;13.00;;;;;;;-142.57;100.00;55462.63;4974248;28;20038;-81
2023/12/17 08:14:28;;;;;;;22.60;13.45;;;;;;;-142.57;100.00;55486.84;4974428;28;20118;-78
2023/12/17 08:16:54;;;;;;;28.48;15.45;;;;;;;-142.57;100.00;55450.50;4974264;28;20051;-81
2023/12/17 08:19:19;;;;;;;25.58;14.38;;;;;;;-142.57;100.00;55482.81;4974102;28;20089;-80
2023/12/17 08:21:45;;;;;;;27.35;14.68;;;;;;;-142.57;100.00;55474.72;4956935;28;20556;-81
2023/12/17 08:24:11;;;;;;;21.50;13.68;;;;;;;-142.57;100.00;55551.50;4974039;28;20042;-80
2023/12/17 08:26:36;;;;;;;25.58;13.98;;;;;;;-142.57;100.00;55486.84;4974001;28;20050;-81
2023/12/17 08:29:02;;;;;;;30.25;14.70;;;;;;;-142.57;100.00;55482.81;4974037;28;20062;-81
2023/12/17 08:31:27;;;;;;;70.60;16.00;;;;;;;-142.57;100.00;55478.78;4973839;28;20034;-79
2023/12/17 08:33:53;;;;;;;75.03;17.10;;;;;;;-142.57;100.00;55517.16;4974086;28;20113;-79
2023/12/17 08:36:19;;;;;;;105.22;19.27;;;;;;;-142.57;100.00;55482.81;4974164;28;20035;-82
2023/12/17 08:38:45;;;;;;;51.25;17.30;;;;;;;-142.57;100.00;55482.81;4974138;28;20401;-81
2023/12/17 08:41:13;;;;;;;28.17;16.83;;;;;;;-142.57;100.00;55466.66;4973768;28;20062;-83
2023/12/17 08:43:38;;;;;;;35.08;17.27;;;;;;;-142.57;100.00;55482.81;4974050;28;20034;-82
2023/12/17 08:46:04;;;;;;;31.85;17.75;;;;;;;-142.57;100.00;55498.97;4973915;28;20512;-84
2023/12/17 08:48:29;;;;;;;30.23;17.17;;;;;;;-142.57;100.00;55486.84;4974124;28;20038;-83
2023/12/17 08:50:55;;;;;;;54.65;18.95;;;;;;;-142.57;100.00;55515.16;4975592;28;20058;-84
2023/12/17 08:53:22;;;;;;;29.42;18.42;;;;;;;-142.57;100.00;55490.91;4974704;28;20086;-84
2023/12/17 08:55:49;;;;;;;76.18;20.38;;;;;;;-142.57;100.00;55474.72;4974146;28;20105;-83
2023/12/17 08:58:16;;;;;;;53.08;19.48;;;;;;;-142.57;100.00;55539.38;4979381;28;20456;-84
2023/12/17 09:00:41;;;;;;;189.68;26.48;;;;;;;-142.57;100.00;55563.63;4982441;28;20371;-81
2023/12/17 09:03:07;;;;;;;39.33;17.88;;;;;;;-142.57;100.00;55547.47;4965711;28;20081;-83
2023/12/17 09:05:32;;;;;;;65.00;19.45;;;;;;;-142.57;100.00;55559.59;4982674;28;20034;-84
2023/12/17 09:08:02;;;;;;;36.58;17.00;;;;;;;-142.57;100.00;55549.50;4963391;28;20034;-80
2023/12/17 09:10:28;;;;;;;127.28;22.17;;;;;;;-142.57;100.00;55531.31;4966896;28;20715;-84
2023/12/17 09:12:54;;;;;;;53.67;19.48;;;;;;;-142.57;100.00;55517.16;4972096;28;21099;-80
2023/12/17 09:15:21;;;;;;;32.15;15.77;;;;;;;-142.57;100.00;55539.38;4971277;28;20039;-85
2023/12/17 09:17:47;;;;;;;38.30;17.27;;;;;;;-142.57;100.00;55577.78;4976117;28;20135;-86
2023/12/17 09:20:15;;;;;;;34.45;17.15;;;;;;;-142.57;100.00;55563.63;4958696;28;20098;-83
2023/12/17 09:22:41;;;;;;;27.58;16.65;;;;;;;-142.57;100.00;55575.75;4958323;28;20129;-89
2023/12/17 09:25:07;;;;;;;35.13;18.10;;;;;;;-142.57;100.00;55602.03;4977974;28;20409;-87
2023/12/17 09:27:33;;;;;;;34.50;17.55;;;;;;;-142.57;100.00;55553.53;4975521;28;20049;-85
2023/12/17 09:29:58;;;;;;;34.55;17.80;;;;;;;-142.57;100.00;55547.47;4979423;28;20066;-82
2023/12/17 09:32:23;;;;;;;27.60;17.65;;;;;;;-142.57;100.00;55585.84;4973728;28;20041;-84
2023/12/17 09:34:49;;;;;;;32.72;18.83;;;;;;;-142.57;100.00;55567.69;4976295;28;20066;-87
2023/12/17 09:37:15;;;;;;;54.80;20.35;;;;;;;-142.57;100.00;55595.97;4945924;28;20331;-85
2023/12/17 09:39:40;;;;;;;51.95;19.15;;;;;;;-142.57;100.00;55602.03;4978843;28;20124;-83
2023/12/17 09:42:06;;;;;;;45.90;19.80;;;;;;;-142.57;100.00;55597.97;4978925;28;20043;-87
2023/12/17 09:44:32;;;;;;;51.28;20.50;;;;;;;-142.57;100.00;55634.34;4962585;28;20034;-83
2023/12/17 09:46:58;;;;;;;25.30;16.20;;;;;;;-142.57;100.00;55620.22;4976900;28;20034;-84
2023/12/17 09:49:23;;;;;;;32.67;15.75;;;;;;;-142.57;100.00;55610.09;4975248;28;20046;-82
2023/12/17 09:52:00;;;;;;;24.63;14.82;;;;;;;-142.57;100.00;55660.63;4980591;28;20030;-84
2023/12/17 09:54:26;;;;;;;24.77;14.13;;;;;;;-142.57;100.00;55672.75;4975604;28;20112;-85
2023/12/17 09:56:54;;;;;;;21.05;13.98;;;;;;;-142.57;100.00;55662.63;4975790;28;20023;-87
2023/12/17 09:59:20;;;;;;;118.70;20.63;;;;;;;-142.57;100.00;55632.34;4972851;28;20113;-87
2023/12/17 10:01:45;;;;;;;99.65;19.30;;;;;;;-142.57;100.00;55662.63;4973471;28;20491;-83
2023/12/17 10:04:11;;;;;;;146.52;21.60;;;;;;;-142.57;100.00;55674.75;4973434;28;20038;-85
2023/12/17 10:06:36;;;;;;;85.60;15.73;;;;;;;-142.57;100.00;55676.78;4972893;28;20045;-85
2023/12/17 10:09:04;;;;;;;26.30;13.63;;;;;;;-142.57;100.00;55701.03;4972339;28;20027;-81
2023/12/17 10:11:30;;;;;;;70.90;16.35;;;;;;;-142.57;100.00;55753.56;4971348;28;20043;-81
2023/12/17 10:13:56;;;;;;;28.17;12.52;;;;;;;-142.57;100.00;55761.66;4973517;28;20050;-81
2023/12/17 10:16:22;;;;;;;24.90;12.23;;;;;;;-142.57;100.00;55737.41;4971691;28;20042;-81
2023/12/17 10:18:48;;;;;;;249.32;27.98;;;;;;;-142.57;100.00;55733.34;4974694;28;20481;-86
2023/12/17 10:21:13;;;;;;;200.30;23.38;;;;;;;-142.57;100.00;55753.56;4973359;28;20082;-87
2023/12/17 10:23:49;;;;;;;28.95;14.07;;;;;;;-142.57;100.00;55705.06;4972698;28;20133;-88
2023/12/17 10:26:15;;;;;;;52.58;14.63;;;;;;;-142.57;100.00;55717.19;4972845;28;20454;-88
2023/12/17 10:28:47;;;;;;;41.55;15.35;;;;;;;-142.57;100.00;55755.59;4975450;28;20050;-84
2023/12/17 10:31:16;;;;;;;;;;;;;;;-142.57;100.00;55753.56;4986915;28;20038;-84
2023/12/17 10:33:57;;;;;;;31.83;15.77;;;;;;;-142.57;100.00;55749.53;4982608;28;19941;-82
2023/12/17 10:36:23;;;;;;;33.03;15.00;;;;;;;-142.57;100.00;55761.66;4982165;28;20066;-89
2023/12/17 10:38:52;;;;;;;30.10;15.70;;;;;;;-142.57;100.00;55767.72;4955257;28;20046;-83
2023/12/17 10:41:18;;;;;;;66.10;19.02;;;;;;;-142.57;100.00;55783.88;4955396;28;20053;-90
2023/12/17 10:43:44;;;;;;;31.75;16.77;;;;;;;-142.57;100.00;55781.84;4971963;28;20046;-81
2023/12/17 10:46:13;;;;;;;30.15;16.98;;;;;;;-142.57;100.00;55802.06;4971694;28;20039;-83
2023/12/17 10:48:39;;;;;;;28.48;16.27;;;;;;;-142.57;100.00;55793.97;4971975;28;20031;-85
2023/12/17 10:51:06;;;;;;;28.45;14.85;;;;;;;-142.57;100.00;55846.50;4971032;28;20026;-83
2023/12/17 10:53:31;;;;;;;43.13;16.90;;;;;;;-142.57;100.00;55822.25;4970788;28;20050;-81
2023/12/17 10:55:58;;;;;;;28.60;17.95;;;;;;;-142.57;100.00;55856.63;4971608;28;20047;-80